sensor_id;sensor_type;location;lat;lon;timestamp;temperature;humidity
13328;DHT22;6733;51.044;3.746;2023-08-12T00:02:13;22.00;99.90
13328;DHT22;6733;51.044;3.746;2023-08-12T00:04:39;22.00;99.90
13328;DHT22;6733;51.044;3.746;2023-08-12T00:07:05;21.90;99.90
13328;DHT22;6733;51.044;3.746;2023-08-12T00:09:31;22.00;99.90
13328;DHT22;6733;51.044;3.746;2023-08-12T00:11:57;22.00;99.90
13328;DHT22;6733;51.044;3.746;2023-08-12T00:14:24;21.90;99.90
13328;DHT22;6733;51.044;3.746;2023-08-12T00:16:50;21.90;99.90
13328;DHT22;6733;51.044;3.746;2023-08-12T00:19:16;21.90;99.90
13328;DHT22;6733;51.044;3.746;2023-08-12T00:21:42;21.90;99.90
13328;DHT22;6733;51.044;3.746;2023-08-12T00:24:08;21.90;99.90
13328;DHT22;6733;51.044;3.746;2023-08-12T00:26:33;21.90;99.90
13328;DHT22;6733;51.044;3.746;2023-08-12T00:28:59;21.90;99.90
13328;DHT22;6733;51.044;3.746;2023-08-12T00:31:25;21.90;99.90
13328;DHT22;6733;51.044;3.746;2023-08-12T00:33:51;21.90;99.90
13328;DHT22;6733;51.044;3.746;2023-08-12T00:36:17;21.90;99.90
13328;DHT22;6733;51.044;3.746;2023-08-12T00:38:43;21.90;99.90
13328;DHT22;6733;51.044;3.746;2023-08-12T00:41:08;21.90;99.90
13328;DHT22;6733;51.044;3.746;2023-08-12T00:43:34;21.90;99.90
13328;DHT22;6733;51.044;3.746;2023-08-12T00:46:01;21.90;99.90
13328;DHT22;6733;51.044;3.746;2023-08-12T00:48:27;21.90;99.90
13328;DHT22;6733;51.044;3.746;2023-08-12T00:50:53;21.90;99.90
13328;DHT22;6733;51.044;3.746;2023-08-12T00:53:20;21.80;99.90
13328;DHT22;6733;51.044;3.746;2023-08-12T00:55:46;21.80;99.90
13328;DHT22;6733;51.044;3.746;2023-08-12T00:58:13;21.80;99.90
13328;DHT22;6733;51.044;3.746;2023-08-12T01:00:39;21.80;99.90
13328;DHT22;6733;51.044;3.746;2023-08-12T01:03:06;21.80;99.90
13328;DHT22;6733;51.044;3.746;2023-08-12T01:05:33;21.80;99.90
13328;DHT22;6733;51.044;3.746;2023-08-12T01:07:59;21.70;99.90
13328;DHT22;6733;51.044;3.746;2023-08-12T01:10:30;21.70;99.90
13328;DHT22;6733;51.044;3.746;2023-08-12T01:13:10;21.70;99.90
13328;DHT22;6733;51.044;3.746;2023-08-12T01:15:40;21.70;99.90
13328;DHT22;6733;51.044;3.746;2023-08-12T01:18:07;21.70;99.90
13328;DHT22;6733;51.044;3.746;2023-08-12T01:20:34;21.70;99.90
13328;DHT22;6733;51.044;3.746;2023-08-12T01:23:11;21.70;99.90
13328;DHT22;6733;51.044;3.746;2023-08-12T01:25:39;21.70;99.90
13328;DHT22;6733;51.044;3.746;2023-08-12T01:28:05;21.70;99.90
13328;DHT22;6733;51.044;3.746;2023-08-12T01:30:33;21.70;99.90
13328;DHT22;6733;51.044;3.746;2023-08-12T01:33:24;21.70;99.90
13328;DHT22;6733;51.044;3.746;2023-08-12T01:36:17;21.70;99.90
13328;DHT22;6733;51.044;3.746;2023-08-12T01:38:44;21.70;99.90
13328;DHT22;6733;51.044;3.746;2023-08-12T01:41:13;21.60;99.90
13328;DHT22;6733;51.044;3.746;2023-08-12T01:43:40;21.70;99.90
13328;DHT22;6733;51.044;3.746;2023-08-12T01:46:07;21.70;99.90
13328;DHT22;6733;51.044;3.746;2023-08-12T01:48:33;21.70;99.90
13328;DHT22;6733;51.044;3.746;2023-08-12T01:50:59;21.70;99.90
13328;DHT22;6733;51.044;3.746;2023-08-12T01:53:25;21.60;99.90
13328;DHT22;6733;51.044;3.746;2023-08-12T01:55:52;21.60;99.90
13328;DHT22;6733;51.044;3.746;2023-08-12T01:58:18;21.60;99.90
13328;DHT22;6733;51.044;3.746;2023-08-12T02:00:44;21.60;99.90
13328;DHT22;6733;51.044;3.746;2023-08-12T02:03:10;21.60;99.90
13328;DHT22;6733;51.044;3.746;2023-08-12T02:05:36;21.60;99.90
13328;DHT22;6733;51.044;3.746;2023-08-12T02:08:05;21.60;99.90
13328;DHT22;6733;51.044;3.746;2023-08-12T02:10:31;21.60;99.90
13328;DHT22;6733;51.044;3.746;2023-08-12T02:12:57;21.60;99.90
13328;DHT22;6733;51.044;3.746;2023-08-12T02:15:23;21.60;99.90
13328;DHT22;6733;51.044;3.746;2023-08-12T02:17:49;21.60;99.90
13328;DHT22;6733;51.044;3.746;2023-08-12T02:20:15;21.60;99.90
13328;DHT22;6733;51.044;3.746;2023-08-12T02:22:41;21.60;99.90
13328;DHT22;6733;51.044;3.746;2023-08-12T02:25:07;21.60;99.90
13328;DHT22;6733;51.044;3.746;2023-08-12T02:27:33;21.60;99.90
13328;DHT22;6733;51.044;3.746;2023-08-12T02:29:59;21.70;99.90
13328;DHT22;6733;51.044;3.746;2023-08-12T02:32:26;21.70;99.90
13328;DHT22;6733;51.044;3.746;2023-08-12T02:35:18;21.80;99.90
13328;DHT22;6733;51.044;3.746;2023-08-12T02:38:09;21.80;99.90
13328;DHT22;6733;51.044;3.746;2023-08-12T02:41:00;21.80;99.90
13328;DHT22;6733;51.044;3.746;2023-08-12T02:43:51;21.80;99.90
13328;DHT22;6733;51.044;3.746;2023-08-12T02:46:42;21.80;99.90
13328;DHT22;6733;51.044;3.746;2023-08-12T02:49:33;21.80;99.90
13328;DHT22;6733;51.044;3.746;2023-08-12T02:52:24;21.80;99.90
13328;DHT22;6733;51.044;3.746;2023-08-12T02:55:16;21.90;99.90
13328;DHT22;6733;51.044;3.746;2023-08-12T02:57:42;21.90;99.90
13328;DHT22;6733;51.044;3.746;2023-08-12T03:00:09;21.90;99.90
13328;DHT22;6733;51.044;3.746;2023-08-12T03:02:35;21.90;99.90
13328;DHT22;6733;51.044;3.746;2023-08-12T03:05:01;21.90;99.90
13328;DHT22;6733;51.044;3.746;2023-08-12T03:07:28;21.90;99.90
13328;DHT22;6733;51.044;3.746;2023-08-12T03:09:54;21.90;99.90
13328;DHT22;6733;51.044;3.746;2023-08-12T03:12:20;21.90;99.90
13328;DHT22;6733;51.044;3.746;2023-08-12T03:14:45;21.90;99.90
13328;DHT22;6733;51.044;3.746;2023-08-12T03:17:12;21.90;99.90
13328;DHT22;6733;51.044;3.746;2023-08-12T03:19:38;21.90;99.90
13328;DHT22;6733;51.044;3.746;2023-08-12T03:22:04;21.90;99.90
13328;DHT22;6733;51.044;3.746;2023-08-12T03:24:30;21.90;99.90
13328;DHT22;6733;51.044;3.746;2023-08-12T03:26:57;21.90;99.90
13328;DHT22;6733;51.044;3.746;2023-08-12T03:29:23;21.90;99.90
13328;DHT22;6733;51.044;3.746;2023-08-12T03:31:48;21.90;99.90
13328;DHT22;6733;51.044;3.746;2023-08-12T03:34:14;21.90;99.90
13328;DHT22;6733;51.044;3.746;2023-08-12T03:36:41;21.90;99.90
13328;DHT22;6733;51.044;3.746;2023-08-12T03:39:07;21.90;99.90
13328;DHT22;6733;51.044;3.746;2023-08-12T03:41:33;21.90;99.90
13328;DHT22;6733;51.044;3.746;2023-08-12T03:43:59;21.90;99.90
13328;DHT22;6733;51.044;3.746;2023-08-12T03:46:25;21.90;99.90
13328;DHT22;6733;51.044;3.746;2023-08-12T03:48:51;21.90;99.90
13328;DHT22;6733;51.044;3.746;2023-08-12T03:51:16;21.80;99.90
13328;DHT22;6733;51.044;3.746;2023-08-12T03:53:42;21.80;99.90
13328;DHT22;6733;51.044;3.746;2023-08-12T03:56:08;21.70;99.90
13328;DHT22;6733;51.044;3.746;2023-08-12T03:58:34;21.70;99.90
13328;DHT22;6733;51.044;3.746;2023-08-12T04:01:01;21.70;99.90
13328;DHT22;6733;51.044;3.746;2023-08-12T04:03:26;21.70;99.90
13328;DHT22;6733;51.044;3.746;2023-08-12T04:05:53;21.70;99.90
13328;DHT22;6733;51.044;3.746;2023-08-12T04:08:20;21.70;99.90
13328;DHT22;6733;51.044;3.746;2023-08-12T04:10:47;21.70;99.90
13328;DHT22;6733;51.044;3.746;2023-08-12T04:13:14;21.70;99.90
13328;DHT22;6733;51.044;3.746;2023-08-12T04:15:41;21.60;99.90
13328;DHT22;6733;51.044;3.746;2023-08-12T04:18:07;21.60;99.90
13328;DHT22;6733;51.044;3.746;2023-08-12T04:20:33;21.60;99.90
13328;DHT22;6733;51.044;3.746;2023-08-12T04:22:59;21.50;99.90
13328;DHT22;6733;51.044;3.746;2023-08-12T04:25:25;21.60;99.90
13328;DHT22;6733;51.044;3.746;2023-08-12T04:27:51;21.50;99.90
13328;DHT22;6733;51.044;3.746;2023-08-12T04:30:18;21.50;99.90
13328;DHT22;6733;51.044;3.746;2023-08-12T04:32:44;21.50;99.90
13328;DHT22;6733;51.044;3.746;2023-08-12T04:35:10;21.50;99.90
13328;DHT22;6733;51.044;3.746;2023-08-12T04:37:36;21.50;99.90
13328;DHT22;6733;51.044;3.746;2023-08-12T04:40:02;21.50;99.90
13328;DHT22;6733;51.044;3.746;2023-08-12T04:42:33;21.50;99.90
13328;DHT22;6733;51.044;3.746;2023-08-12T04:45:00;21.40;99.90
13328;DHT22;6733;51.044;3.746;2023-08-12T04:47:26;21.40;99.90
13328;DHT22;6733;51.044;3.746;2023-08-12T04:49:52;21.40;99.90
13328;DHT22;6733;51.044;3.746;2023-08-12T04:52:18;21.40;99.90
13328;DHT22;6733;51.044;3.746;2023-08-12T04:54:46;21.40;99.90
13328;DHT22;6733;51.044;3.746;2023-08-12T04:57:12;21.40;99.90
13328;DHT22;6733;51.044;3.746;2023-08-12T04:59:38;21.40;99.90
13328;DHT22;6733;51.044;3.746;2023-08-12T05:02:05;21.40;99.90
13328;DHT22;6733;51.044;3.746;2023-08-12T05:04:31;21.40;99.90
13328;DHT22;6733;51.044;3.746;2023-08-12T05:06:57;21.40;99.90
13328;DHT22;6733;51.044;3.746;2023-08-12T05:09:23;21.40;99.90
13328;DHT22;6733;51.044;3.746;2023-08-12T05:11:49;21.40;99.90
13328;DHT22;6733;51.044;3.746;2023-08-12T05:14:15;21.40;99.90
13328;DHT22;6733;51.044;3.746;2023-08-12T05:16:41;21.40;99.90
13328;DHT22;6733;51.044;3.746;2023-08-12T05:19:07;21.40;99.90
13328;DHT22;6733;51.044;3.746;2023-08-12T05:21:33;21.30;99.90
13328;DHT22;6733;51.044;3.746;2023-08-12T05:24:00;21.30;99.90
13328;DHT22;6733;51.044;3.746;2023-08-12T05:26:26;21.20;99.90
13328;DHT22;6733;51.044;3.746;2023-08-12T05:28:52;21.20;99.90
13328;DHT22;6733;51.044;3.746;2023-08-12T05:31:18;21.30;99.90
13328;DHT22;6733;51.044;3.746;2023-08-12T05:33:45;21.00;99.90
13328;DHT22;6733;51.044;3.746;2023-08-12T05:36:11;20.90;99.90
13328;DHT22;6733;51.044;3.746;2023-08-12T05:38:37;20.70;99.90
13328;DHT22;6733;51.044;3.746;2023-08-12T05:41:03;20.70;99.90
13328;DHT22;6733;51.044;3.746;2023-08-12T05:43:33;20.70;99.90
13328;DHT22;6733;51.044;3.746;2023-08-12T05:45:59;20.70;99.90
13328;DHT22;6733;51.044;3.746;2023-08-12T05:48:25;20.50;99.90
13328;DHT22;6733;51.044;3.746;2023-08-12T05:50:51;20.50;99.90
13328;DHT22;6733;51.044;3.746;2023-08-12T05:53:17;20.40;99.90
13328;DHT22;6733;51.044;3.746;2023-08-12T05:55:43;20.30;99.90
13328;DHT22;6733;51.044;3.746;2023-08-12T05:58:10;20.40;99.90
13328;DHT22;6733;51.044;3.746;2023-08-12T06:00:36;20.30;99.90
13328;DHT22;6733;51.044;3.746;2023-08-12T06:03:02;20.40;99.90
13328;DHT22;6733;51.044;3.746;2023-08-12T06:05:29;20.40;99.90
13328;DHT22;6733;51.044;3.746;2023-08-12T06:07:55;20.30;99.90
13328;DHT22;6733;51.044;3.746;2023-08-12T06:10:21;20.30;99.90
13328;DHT22;6733;51.044;3.746;2023-08-12T06:12:47;20.30;99.90
13328;DHT22;6733;51.044;3.746;2023-08-12T06:15:13;20.20;99.90
13328;DHT22;6733;51.044;3.746;2023-08-12T06:17:39;20.20;99.90
13328;DHT22;6733;51.044;3.746;2023-08-12T06:20:06;20.20;99.90
13328;DHT22;6733;51.044;3.746;2023-08-12T06:22:32;20.00;99.90
13328;DHT22;6733;51.044;3.746;2023-08-12T06:24:58;19.90;99.90
13328;DHT22;6733;51.044;3.746;2023-08-12T06:27:24;19.80;99.90
13328;DHT22;6733;51.044;3.746;2023-08-12T06:29:51;20.00;99.90
13328;DHT22;6733;51.044;3.746;2023-08-12T06:32:16;20.00;99.90
13328;DHT22;6733;51.044;3.746;2023-08-12T06:34:43;20.00;99.90
13328;DHT22;6733;51.044;3.746;2023-08-12T06:37:09;20.00;99.90
13328;DHT22;6733;51.044;3.746;2023-08-12T06:39:35;20.00;99.90
13328;DHT22;6733;51.044;3.746;2023-08-12T06:42:01;20.00;99.90
13328;DHT22;6733;51.044;3.746;2023-08-12T06:44:29;20.00;99.90
13328;DHT22;6733;51.044;3.746;2023-08-12T06:46:55;20.10;99.90
13328;DHT22;6733;51.044;3.746;2023-08-12T06:49:22;20.20;99.90
13328;DHT22;6733;51.044;3.746;2023-08-12T06:51:48;20.40;99.90
13328;DHT22;6733;51.044;3.746;2023-08-12T06:54:14;20.50;99.90
13328;DHT22;6733;51.044;3.746;2023-08-12T06:56:40;20.50;99.90
13328;DHT22;6733;51.044;3.746;2023-08-12T06:59:06;20.50;99.90
13328;DHT22;6733;51.044;3.746;2023-08-12T07:01:33;20.60;99.90
13328;DHT22;6733;51.044;3.746;2023-08-12T07:03:59;20.60;99.90
13328;DHT22;6733;51.044;3.746;2023-08-12T07:06:26;20.40;99.90
13328;DHT22;6733;51.044;3.746;2023-08-12T07:11:38;20.40;99.90
13328;DHT22;6733;51.044;3.746;2023-08-12T07:14:04;20.40;99.90
13328;DHT22;6733;51.044;3.746;2023-08-12T07:16:30;20.30;99.90
13328;DHT22;6733;51.044;3.746;2023-08-12T07:18:56;20.40;99.90
13328;DHT22;6733;51.044;3.746;2023-08-12T07:21:22;20.60;99.90
13328;DHT22;6733;51.044;3.746;2023-08-12T07:23:48;20.80;99.90
13328;DHT22;6733;51.044;3.746;2023-08-12T07:26:14;21.10;99.90
13328;DHT22;6733;51.044;3.746;2023-08-12T07:28:41;21.20;99.90
13328;DHT22;6733;51.044;3.746;2023-08-12T07:31:07;21.00;99.90
13328;DHT22;6733;51.044;3.746;2023-08-12T07:33:33;20.90;99.90
13328;DHT22;6733;51.044;3.746;2023-08-12T07:35:59;21.00;99.90
13328;DHT22;6733;51.044;3.746;2023-08-12T07:38:26;21.30;99.90
13328;DHT22;6733;51.044;3.746;2023-08-12T07:40:52;21.20;99.90
13328;DHT22;6733;51.044;3.746;2023-08-12T07:43:18;21.10;99.90
13328;DHT22;6733;51.044;3.746;2023-08-12T07:45:44;21.30;99.90
13328;DHT22;6733;51.044;3.746;2023-08-12T07:48:11;21.40;99.90
13328;DHT22;6733;51.044;3.746;2023-08-12T07:50:37;21.60;99.90
13328;DHT22;6733;51.044;3.746;2023-08-12T07:53:03;21.70;99.90
13328;DHT22;6733;51.044;3.746;2023-08-12T07:55:29;22.00;99.90
13328;DHT22;6733;51.044;3.746;2023-08-12T07:57:55;22.10;99.90
13328;DHT22;6733;51.044;3.746;2023-08-12T08:00:21;22.10;99.90
13328;DHT22;6733;51.044;3.746;2023-08-12T08:02:47;22.20;99.90
13328;DHT22;6733;51.044;3.746;2023-08-12T08:05:13;22.50;99.90
13328;DHT22;6733;51.044;3.746;2023-08-12T08:07:39;22.60;99.90
13328;DHT22;6733;51.044;3.746;2023-08-12T08:10:05;22.90;99.90
13328;DHT22;6733;51.044;3.746;2023-08-12T08:12:32;23.30;99.90
13328;DHT22;6733;51.044;3.746;2023-08-12T08:14:58;23.30;99.90
13328;DHT22;6733;51.044;3.746;2023-08-12T08:17:23;23.40;99.90
13328;DHT22;6733;51.044;3.746;2023-08-12T08:19:49;23.30;99.90
13328;DHT22;6733;51.044;3.746;2023-08-12T08:22:15;23.00;99.90
13328;DHT22;6733;51.044;3.746;2023-08-12T08:24:41;22.50;99.90
13328;DHT22;6733;51.044;3.746;2023-08-12T08:27:07;22.60;99.90
13328;DHT22;6733;51.044;3.746;2023-08-12T08:29:33;22.60;99.90
13328;DHT22;6733;51.044;3.746;2023-08-12T08:31:59;23.00;99.90
13328;DHT22;6733;51.044;3.746;2023-08-12T08:34:25;23.10;99.90
13328;DHT22;6733;51.044;3.746;2023-08-12T08:36:51;23.00;99.90
13328;DHT22;6733;51.044;3.746;2023-08-12T08:39:17;22.70;99.90
13328;DHT22;6733;51.044;3.746;2023-08-12T08:41:45;23.10;99.90
13328;DHT22;6733;51.044;3.746;2023-08-12T08:44:13;23.30;99.90
13328;DHT22;6733;51.044;3.746;2023-08-12T08:46:42;23.50;99.90
13328;DHT22;6733;51.044;3.746;2023-08-12T08:49:09;23.70;99.90
13328;DHT22;6733;51.044;3.746;2023-08-12T08:51:37;24.20;99.90
13328;DHT22;6733;51.044;3.746;2023-08-12T08:54:03;24.40;99.90
13328;DHT22;6733;51.044;3.746;2023-08-12T08:56:32;24.20;99.90
13328;DHT22;6733;51.044;3.746;2023-08-12T08:58:59;24.20;99.90
13328;DHT22;6733;51.044;3.746;2023-08-12T09:01:26;24.40;99.90
13328;DHT22;6733;51.044;3.746;2023-08-12T09:03:54;24.30;99.90
13328;DHT22;6733;51.044;3.746;2023-08-12T09:06:26;24.30;99.90
13328;DHT22;6733;51.044;3.746;2023-08-12T09:08:54;24.70;99.90
13328;DHT22;6733;51.044;3.746;2023-08-12T09:11:21;24.70;99.90
13328;DHT22;6733;51.044;3.746;2023-08-12T09:13:47;24.70;99.90
13328;DHT22;6733;51.044;3.746;2023-08-12T09:16:15;24.70;99.90
13328;DHT22;6733;51.044;3.746;2023-08-12T09:18:44;24.70;99.90
13328;DHT22;6733;51.044;3.746;2023-08-12T09:21:11;24.60;99.90
13328;DHT22;6733;51.044;3.746;2023-08-12T09:23:38;24.70;99.90
13328;DHT22;6733;51.044;3.746;2023-08-12T09:26:31;24.50;99.90
13328;DHT22;6733;51.044;3.746;2023-08-12T09:28:58;24.60;99.90
13328;DHT22;6733;51.044;3.746;2023-08-12T09:31:26;24.70;99.90
13328;DHT22;6733;51.044;3.746;2023-08-12T09:34:04;24.70;99.90
13328;DHT22;6733;51.044;3.746;2023-08-12T09:36:33;24.90;99.90
13328;DHT22;6733;51.044;3.746;2023-08-12T09:38:59;24.80;99.90
13328;DHT22;6733;51.044;3.746;2023-08-12T09:41:29;24.60;99.90
13328;DHT22;6733;51.044;3.746;2023-08-12T09:43:55;24.50;99.90
13328;DHT22;6733;51.044;3.746;2023-08-12T09:46:23;24.50;99.90
13328;DHT22;6733;51.044;3.746;2023-08-12T09:48:52;24.70;99.90
13328;DHT22;6733;51.044;3.746;2023-08-12T09:51:19;25.20;99.90
13328;DHT22;6733;51.044;3.746;2023-08-12T09:53:48;25.40;99.90
13328;DHT22;6733;51.044;3.746;2023-08-12T09:56:18;25.40;99.90
13328;DHT22;6733;51.044;3.746;2023-08-12T09:58:48;25.20;99.90
13328;DHT22;6733;51.044;3.746;2023-08-12T10:01:18;25.00;99.90
13328;DHT22;6733;51.044;3.746;2023-08-12T10:03:49;25.20;99.90
13328;DHT22;6733;51.044;3.746;2023-08-12T10:06:15;25.30;99.90
13328;DHT22;6733;51.044;3.746;2023-08-12T10:08:45;25.40;99.90
13328;DHT22;6733;51.044;3.746;2023-08-12T10:11:12;25.50;99.90
13328;DHT22;6733;51.044;3.746;2023-08-12T10:13:40;25.80;99.90
13328;DHT22;6733;51.044;3.746;2023-08-12T10:16:23;26.10;99.90
13328;DHT22;6733;51.044;3.746;2023-08-12T10:18:49;26.30;99.90
13328;DHT22;6733;51.044;3.746;2023-08-12T10:21:16;26.30;99.90
13328;DHT22;6733;51.044;3.746;2023-08-12T10:23:44;26.20;99.90
13328;DHT22;6733;51.044;3.746;2023-08-12T10:26:12;25.70;99.90
13328;DHT22;6733;51.044;3.746;2023-08-12T10:28:39;25.60;99.90
13328;DHT22;6733;51.044;3.746;2023-08-12T10:31:06;25.80;99.90
13328;DHT22;6733;51.044;3.746;2023-08-12T10:33:39;25.40;99.90
13328;DHT22;6733;51.044;3.746;2023-08-12T10:36:09;25.40;99.90
13328;DHT22;6733;51.044;3.746;2023-08-12T10:38:36;25.30;99.90
13328;DHT22;6733;51.044;3.746;2023-08-12T10:41:19;25.30;99.90
13328;DHT22;6733;51.044;3.746;2023-08-12T10:46:27;25.20;99.90
13328;DHT22;6733;51.044;3.746;2023-08-12T10:51:49;25.60;99.90
13328;DHT22;6733;51.044;3.746;2023-08-12T10:54:24;25.90;99.90
13328;DHT22;6733;51.044;3.746;2023-08-12T11:02:22;26.20;99.90
13328;DHT22;6733;51.044;3.746;2023-08-12T11:04:51;25.90;99.90
13328;DHT22;6733;51.044;3.746;2023-08-12T11:07:20;26.20;99.90
13328;DHT22;6733;51.044;3.746;2023-08-12T11:09:51;26.10;99.90
13328;DHT22;6733;51.044;3.746;2023-08-12T11:12:31;26.00;99.90
13328;DHT22;6733;51.044;3.746;2023-08-12T11:14:59;26.00;99.90
13328;DHT22;6733;51.044;3.746;2023-08-12T11:17:38;25.80;99.90
13328;DHT22;6733;51.044;3.746;2023-08-12T11:20:07;25.90;99.90
13328;DHT22;6733;51.044;3.746;2023-08-12T11:22:40;25.80;99.90
13328;DHT22;6733;51.044;3.746;2023-08-12T11:25:11;25.80;99.90
13328;DHT22;6733;51.044;3.746;2023-08-12T11:27:41;25.90;99.90
13328;DHT22;6733;51.044;3.746;2023-08-12T11:30:10;26.10;99.90
13328;DHT22;6733;51.044;3.746;2023-08-12T11:32:38;26.20;99.90
13328;DHT22;6733;51.044;3.746;2023-08-12T11:35:06;26.30;99.90
13328;DHT22;6733;51.044;3.746;2023-08-12T11:37:36;26.20;99.90
13328;DHT22;6733;51.044;3.746;2023-08-12T11:40:04;26.10;99.90
13328;DHT22;6733;51.044;3.746;2023-08-12T11:42:31;26.30;99.90
13328;DHT22;6733;51.044;3.746;2023-08-12T11:44:57;26.20;99.90
13328;DHT22;6733;51.044;3.746;2023-08-12T11:47:23;26.10;99.90
13328;DHT22;6733;51.044;3.746;2023-08-12T11:49:52;26.10;99.90
13328;DHT22;6733;51.044;3.746;2023-08-12T11:52:19;26.10;99.90
13328;DHT22;6733;51.044;3.746;2023-08-12T11:54:47;26.40;99.90
13328;DHT22;6733;51.044;3.746;2023-08-12T11:57:14;26.20;99.90
13328;DHT22;6733;51.044;3.746;2023-08-12T11:59:40;25.90;99.90
13328;DHT22;6733;51.044;3.746;2023-08-12T12:02:07;25.60;99.90
13328;DHT22;6733;51.044;3.746;2023-08-12T12:04:34;25.50;99.90
13328;DHT22;6733;51.044;3.746;2023-08-12T12:07:01;25.70;99.90
13328;DHT22;6733;51.044;3.746;2023-08-12T12:09:32;25.50;99.90
13328;DHT22;6733;51.044;3.746;2023-08-12T12:11:59;25.30;99.90
13328;DHT22;6733;51.044;3.746;2023-08-12T12:14:26;25.40;99.90
13328;DHT22;6733;51.044;3.746;2023-08-12T12:16:52;25.40;99.90
13328;DHT22;6733;51.044;3.746;2023-08-12T12:19:22;25.90;99.90
13328;DHT22;6733;51.044;3.746;2023-08-12T12:21:51;26.30;99.90
13328;DHT22;6733;51.044;3.746;2023-08-12T12:24:18;26.10;99.90
13328;DHT22;6733;51.044;3.746;2023-08-12T12:26:47;25.90;99.90
13328;DHT22;6733;51.044;3.746;2023-08-12T12:29:13;25.80;99.90
13328;DHT22;6733;51.044;3.746;2023-08-12T12:31:41;26.00;99.90
13328;DHT22;6733;51.044;3.746;2023-08-12T12:34:10;26.30;99.90
13328;DHT22;6733;51.044;3.746;2023-08-12T12:36:37;26.30;99.90
13328;DHT22;6733;51.044;3.746;2023-08-12T12:39:04;26.40;99.90
13328;DHT22;6733;51.044;3.746;2023-08-12T12:41:31;26.40;99.90
13328;DHT22;6733;51.044;3.746;2023-08-12T12:43:57;26.80;99.90
13328;DHT22;6733;51.044;3.746;2023-08-12T12:46:23;27.00;99.90
13328;DHT22;6733;51.044;3.746;2023-08-12T12:48:50;27.00;99.90
13328;DHT22;6733;51.044;3.746;2023-08-12T12:51:16;26.50;99.90
13328;DHT22;6733;51.044;3.746;2023-08-12T12:53:42;26.40;99.90
13328;DHT22;6733;51.044;3.746;2023-08-12T12:56:09;26.20;99.90
13328;DHT22;6733;51.044;3.746;2023-08-12T12:58:36;26.10;99.90
13328;DHT22;6733;51.044;3.746;2023-08-12T13:01:03;26.50;99.90
13328;DHT22;6733;51.044;3.746;2023-08-12T13:03:31;26.60;99.90
13328;DHT22;6733;51.044;3.746;2023-08-12T13:05:57;26.80;99.90
13328;DHT22;6733;51.044;3.746;2023-08-12T13:08:24;26.50;99.90
13328;DHT22;6733;51.044;3.746;2023-08-12T13:10:51;26.50;99.90
13328;DHT22;6733;51.044;3.746;2023-08-12T13:13:17;26.30;99.90
13328;DHT22;6733;51.044;3.746;2023-08-12T13:15:45;26.30;99.90
13328;DHT22;6733;51.044;3.746;2023-08-12T13:18:14;26.00;99.90
13328;DHT22;6733;51.044;3.746;2023-08-12T13:20:40;25.80;99.90
13328;DHT22;6733;51.044;3.746;2023-08-12T13:23:06;25.70;99.90
13328;DHT22;6733;51.044;3.746;2023-08-12T13:25:33;25.70;99.90
13328;DHT22;6733;51.044;3.746;2023-08-12T13:28:03;25.50;99.90
13328;DHT22;6733;51.044;3.746;2023-08-12T13:30:30;25.60;99.90
13328;DHT22;6733;51.044;3.746;2023-08-12T13:32:56;25.70;99.90
13328;DHT22;6733;51.044;3.746;2023-08-12T13:35:23;25.90;99.90
13328;DHT22;6733;51.044;3.746;2023-08-12T13:37:50;26.10;99.90
13328;DHT22;6733;51.044;3.746;2023-08-12T13:40:17;26.40;99.90
13328;DHT22;6733;51.044;3.746;2023-08-12T13:42:44;26.80;99.90
13328;DHT22;6733;51.044;3.746;2023-08-12T13:45:12;27.10;99.90
13328;DHT22;6733;51.044;3.746;2023-08-12T13:47:39;27.00;99.90
13328;DHT22;6733;51.044;3.746;2023-08-12T13:50:05;27.30;99.90
13328;DHT22;6733;51.044;3.746;2023-08-12T13:52:32;27.20;99.90
13328;DHT22;6733;51.044;3.746;2023-08-12T13:54:59;27.50;99.90
13328;DHT22;6733;51.044;3.746;2023-08-12T13:57:25;28.10;99.90
13328;DHT22;6733;51.044;3.746;2023-08-12T13:59:51;27.90;99.90
13328;DHT22;6733;51.044;3.746;2023-08-12T14:02:18;27.90;99.90
13328;DHT22;6733;51.044;3.746;2023-08-12T14:04:44;28.70;99.60
13328;DHT22;6733;51.044;3.746;2023-08-12T14:07:10;28.90;98.50
13328;DHT22;6733;51.044;3.746;2023-08-12T14:09:36;29.10;97.60
13328;DHT22;6733;51.044;3.746;2023-08-12T14:12:03;29.20;98.50
13328;DHT22;6733;51.044;3.746;2023-08-12T14:14:30;29.40;96.70
13328;DHT22;6733;51.044;3.746;2023-08-12T14:16:56;28.90;97.70
13328;DHT22;6733;51.044;3.746;2023-08-12T14:19:22;29.00;98.10
13328;DHT22;6733;51.044;3.746;2023-08-12T14:21:48;29.70;98.90
13328;DHT22;6733;51.044;3.746;2023-08-12T14:24:14;28.40;98.00
13328;DHT22;6733;51.044;3.746;2023-08-12T14:26:41;28.50;97.70
13328;DHT22;6733;51.044;3.746;2023-08-12T14:29:07;29.30;96.20
13328;DHT22;6733;51.044;3.746;2023-08-12T14:31:33;29.30;95.50
13328;DHT22;6733;51.044;3.746;2023-08-12T14:34:00;28.30;96.70
13328;DHT22;6733;51.044;3.746;2023-08-12T14:36:27;28.50;96.50
13328;DHT22;6733;51.044;3.746;2023-08-12T14:38:54;28.70;97.00
13328;DHT22;6733;51.044;3.746;2023-08-12T14:41:20;30.30;95.50
13328;DHT22;6733;51.044;3.746;2023-08-12T14:43:46;30.90;94.20
13328;DHT22;6733;51.044;3.746;2023-08-12T14:46:12;30.10;95.00
13328;DHT22;6733;51.044;3.746;2023-08-12T14:48:38;30.00;93.70
13328;DHT22;6733;51.044;3.746;2023-08-12T14:51:04;30.20;94.20
13328;DHT22;6733;51.044;3.746;2023-08-12T14:53:30;29.80;94.40
13328;DHT22;6733;51.044;3.746;2023-08-12T14:55:57;30.60;94.70
13328;DHT22;6733;51.044;3.746;2023-08-12T14:58:23;30.60;93.60
13328;DHT22;6733;51.044;3.746;2023-08-12T15:00:49;31.70;91.70
13328;DHT22;6733;51.044;3.746;2023-08-12T15:03:15;31.50;90.50
13328;DHT22;6733;51.044;3.746;2023-08-12T15:05:42;31.90;89.00
13328;DHT22;6733;51.044;3.746;2023-08-12T15:08:08;32.60;88.60
13328;DHT22;6733;51.044;3.746;2023-08-12T15:10:35;33.50;87.00
13328;DHT22;6733;51.044;3.746;2023-08-12T15:13:01;32.60;86.70
13328;DHT22;6733;51.044;3.746;2023-08-12T15:15:27;32.90;89.40
13328;DHT22;6733;51.044;3.746;2023-08-12T15:17:54;32.90;88.90
13328;DHT22;6733;51.044;3.746;2023-08-12T15:20:20;34.10;81.20
13328;DHT22;6733;51.044;3.746;2023-08-12T15:22:46;34.10;82.40
13328;DHT22;6733;51.044;3.746;2023-08-12T15:25:12;32.90;84.10
13328;DHT22;6733;51.044;3.746;2023-08-12T15:27:38;32.30;82.90
13328;DHT22;6733;51.044;3.746;2023-08-12T15:30:05;32.10;83.40
13328;DHT22;6733;51.044;3.746;2023-08-12T15:32:31;32.40;84.80
13328;DHT22;6733;51.044;3.746;2023-08-12T15:34:57;33.10;81.50
13328;DHT22;6733;51.044;3.746;2023-08-12T15:37:24;33.80;78.10
13328;DHT22;6733;51.044;3.746;2023-08-12T15:39:50;33.30;76.90
13328;DHT22;6733;51.044;3.746;2023-08-12T15:42:16;33.90;79.40
13328;DHT22;6733;51.044;3.746;2023-08-12T15:44:42;35.20;77.00
13328;DHT22;6733;51.044;3.746;2023-08-12T15:47:08;35.70;72.80
13328;DHT22;6733;51.044;3.746;2023-08-12T15:49:34;35.40;73.00
13328;DHT22;6733;51.044;3.746;2023-08-12T15:52:01;35.20;72.00
13328;DHT22;6733;51.044;3.746;2023-08-12T15:54:27;35.70;71.20
13328;DHT22;6733;51.044;3.746;2023-08-12T15:56:53;36.20;69.70
13328;DHT22;6733;51.044;3.746;2023-08-12T15:59:19;35.90;69.40
13328;DHT22;6733;51.044;3.746;2023-08-12T16:01:45;36.90;68.60